sensor_id;sensor_type;location;lat;lon;timestamp;P1;durP1;ratioP1;P2;durP2;ratioP2
2658;SDS011;1339;53.304;10.406;2023-09-18T17:26:26;3.83;;;2.87;;
2658;SDS011;1339;53.304;10.406;2023-09-18T17:28:53;3.37;;;2.77;;
2658;SDS011;1339;53.304;10.406;2023-09-18T17:31:20;4.63;;;2.87;;
2658;SDS011;1339;53.304;10.406;2023-09-18T17:33:47;3.83;;;2.20;;
2658;SDS011;1339;53.304;10.406;2023-09-18T17:36:15;6.60;;;2.80;;
2658;SDS011;1339;53.304;10.406;2023-09-18T17:38:42;2.90;;;2.40;;
2658;SDS011;1339;53.304;10.406;2023-09-18T17:41:11;3.47;;;3.17;;
2658;SDS011;1339;53.304;10.406;2023-09-18T17:43:39;3.40;;;2.30;;
2658;SDS011;1339;53.304;10.406;2023-09-18T17:46:06;4.53;;;3.10;;
2658;SDS011;1339;53.304;10.406;2023-09-18T17:48:33;6.50;;;3.07;;
2658;SDS011;1339;53.304;10.406;2023-09-18T17:51:00;3.40;;;2.50;;
2658;SDS011;1339;53.304;10.406;2023-09-18T17:53:28;2.50;;;2.13;;
2658;SDS011;1339;53.304;10.406;2023-09-18T17:55:55;5.30;;;3.00;;
2658;SDS011;1339;53.304;10.406;2023-09-18T17:58:22;3.50;;;2.80;;
2658;SDS011;1339;53.304;10.406;2023-09-18T18:00:54;3.87;;;2.73;;
2658;SDS011;1339;53.304;10.406;2023-09-18T18:03:21;4.80;;;2.87;;
2658;SDS011;1339;53.304;10.406;2023-09-18T18:05:48;3.00;;;2.60;;
2658;SDS011;1339;53.304;10.406;2023-09-18T18:08:16;4.70;;;2.60;;
2658;SDS011;1339;53.304;10.406;2023-09-18T18:10:44;3.23;;;2.93;;
2658;SDS011;1339;53.304;10.406;2023-09-18T18:13:11;3.57;;;3.07;;
2658;SDS011;1339;53.304;10.406;2023-09-18T18:15:38;2.97;;;2.47;;
2658;SDS011;1339;53.304;10.406;2023-09-18T18:18:07;4.23;;;2.80;;
2658;SDS011;1339;53.304;10.406;2023-09-18T18:20:37;6.57;;;3.10;;
2658;SDS011;1339;53.304;10.406;2023-09-18T18:23:04;3.73;;;3.43;;
2658;SDS011;1339;53.304;10.406;2023-09-18T18:25:31;4.53;;;2.90;;
2658;SDS011;1339;53.304;10.406;2023-09-18T18:28:00;4.10;;;2.67;;
2658;SDS011;1339;53.304;10.406;2023-09-18T18:30:27;6.33;;;3.53;;
2658;SDS011;1339;53.304;10.406;2023-09-18T18:32:54;4.37;;;2.60;;
2658;SDS011;1339;53.304;10.406;2023-09-18T18:35:23;3.83;;;3.43;;
2658;SDS011;1339;53.304;10.406;2023-09-18T18:37:50;4.77;;;3.17;;
2658;SDS011;1339;53.304;10.406;2023-09-18T18:40:18;3.90;;;2.87;;
2658;SDS011;1339;53.304;10.406;2023-09-18T18:42:47;2.93;;;2.73;;
2658;SDS011;1339;53.304;10.406;2023-09-18T18:45:16;3.97;;;2.80;;
2658;SDS011;1339;53.304;10.406;2023-09-18T18:47:44;5.60;;;2.93;;
2658;SDS011;1339;53.304;10.406;2023-09-18T18:50:11;3.67;;;3.10;;
2658;SDS011;1339;53.304;10.406;2023-09-18T18:52:39;3.30;;;3.10;;
2658;SDS011;1339;53.304;10.406;2023-09-18T18:55:07;3.23;;;2.93;;
2658;SDS011;1339;53.304;10.406;2023-09-18T18:57:34;6.27;;;3.10;;
2658;SDS011;1339;53.304;10.406;2023-09-18T19:00:02;6.37;;;2.97;;
2658;SDS011;1339;53.304;10.406;2023-09-18T19:02:39;3.50;;;2.60;;
2658;SDS011;1339;53.304;10.406;2023-09-18T19:05:06;3.93;;;3.03;;
2658;SDS011;1339;53.304;10.406;2023-09-18T19:07:34;2.33;;;2.13;;
2658;SDS011;1339;53.304;10.406;2023-09-18T19:10:04;3.33;;;2.60;;
2658;SDS011;1339;53.304;10.406;2023-09-18T19:12:31;3.17;;;2.47;;
2658;SDS011;1339;53.304;10.406;2023-09-18T19:15:00;3.13;;;2.83;;
2658;SDS011;1339;53.304;10.406;2023-09-18T19:17:30;5.93;;;3.03;;
2658;SDS011;1339;53.304;10.406;2023-09-18T19:19:57;4.43;;;3.27;;
2658;SDS011;1339;53.304;10.406;2023-09-18T19:22:24;7.53;;;3.10;;
2658;SDS011;1339;53.304;10.406;2023-09-18T19:24:51;3.00;;;2.80;;
2658;SDS011;1339;53.304;10.406;2023-09-18T19:27:19;3.47;;;2.63;;
2658;SDS011;1339;53.304;10.406;2023-09-18T19:29:49;5.53;;;3.00;;
2658;SDS011;1339;53.304;10.406;2023-09-18T19:32:16;4.00;;;3.60;;
2658;SDS011;1339;53.304;10.406;2023-09-18T19:34:44;2.80;;;2.43;;
2658;SDS011;1339;53.304;10.406;2023-09-18T19:37:11;3.20;;;2.90;;
2658;SDS011;1339;53.304;10.406;2023-09-18T19:39:38;3.07;;;2.77;;
2658;SDS011;1339;53.304;10.406;2023-09-18T19:42:05;3.33;;;2.40;;
2658;SDS011;1339;53.304;10.406;2023-09-18T19:44:33;3.77;;;2.80;;
2658;SDS011;1339;53.304;10.406;2023-09-18T19:47:00;3.03;;;2.80;;
2658;SDS011;1339;53.304;10.406;2023-09-18T19:49:29;3.23;;;2.93;;
2658;SDS011;1339;53.304;10.406;2023-09-18T19:51:57;4.93;;;3.03;;
2658;SDS011;1339;53.304;10.406;2023-09-18T19:54:25;3.73;;;2.80;;
2658;SDS011;1339;53.304;10.406;2023-09-18T19:56:52;4.80;;;2.60;;
2658;SDS011;1339;53.304;10.406;2023-09-18T19:59:19;2.53;;;2.33;;
2658;SDS011;1339;53.304;10.406;2023-09-18T20:01:47;3.93;;;2.90;;
2658;SDS011;1339;53.304;10.406;2023-09-18T20:04:14;4.87;;;3.00;;
2658;SDS011;1339;53.304;10.406;2023-09-18T20:06:41;2.50;;;2.30;;
2658;SDS011;1339;53.304;10.406;2023-09-18T20:09:08;3.23;;;2.93;;
2658;SDS011;1339;53.304;10.406;2023-09-18T20:11:35;2.90;;;2.63;;
2658;SDS011;1339;53.304;10.406;2023-09-18T20:14:02;5.37;;;2.33;;
2658;SDS011;1339;53.304;10.406;2023-09-18T20:16:32;2.70;;;2.50;;
2658;SDS011;1339;53.304;10.406;2023-09-18T20:19:01;3.73;;;2.90;;
2658;SDS011;1339;53.304;10.406;2023-09-18T20:21:29;5.83;;;2.47;;
2658;SDS011;1339;53.304;10.406;2023-09-18T20:23:56;3.30;;;3.10;;
2658;SDS011;1339;53.304;10.406;2023-09-18T20:26:23;3.90;;;3.03;;
2658;SDS011;1339;53.304;10.406;2023-09-18T20:28:51;6.60;;;3.00;;
2658;SDS011;1339;53.304;10.406;2023-09-18T20:31:18;5.73;;;3.63;;
2658;SDS011;1339;53.304;10.406;2023-09-18T20:33:46;3.37;;;3.07;;
2658;SDS011;1339;53.304;10.406;2023-09-18T20:36:15;2.77;;;2.57;;
2658;SDS011;1339;53.304;10.406;2023-09-18T20:38:43;5.23;;;2.87;;
2658;SDS011;1339;53.304;10.406;2023-09-18T20:41:10;4.37;;;3.97;;
2658;SDS011;1339;53.304;10.406;2023-09-18T20:43:37;5.80;;;2.87;;
2658;SDS011;1339;53.304;10.406;2023-09-18T20:46:08;4.00;;;3.00;;
2658;SDS011;1339;53.304;10.406;2023-09-18T20:48:35;3.27;;;2.77;;
2658;SDS011;1339;53.304;10.406;2023-09-18T20:51:02;3.27;;;2.97;;
2658;SDS011;1339;53.304;10.406;2023-09-18T20:53:31;2.70;;;2.50;;
2658;SDS011;1339;53.304;10.406;2023-09-18T20:55:58;2.53;;;2.23;;
2658;SDS011;1339;53.304;10.406;2023-09-18T20:58:25;5.93;;;2.20;;
2658;SDS011;1339;53.304;10.406;2023-09-18T21:00:52;5.50;;;2.20;;
2658;SDS011;1339;53.304;10.406;2023-09-18T21:03:19;1.73;;;1.63;;
2658;SDS011;1339;53.304;10.406;2023-09-18T21:05:50;3.47;;;1.40;;
2658;SDS011;1339;53.304;10.406;2023-09-18T21:08:19;2.13;;;1.20;;
2658;SDS011;1339;53.304;10.406;2023-09-18T21:10:47;1.83;;;1.50;;
2658;SDS011;1339;53.304;10.406;2023-09-18T21:13:14;1.20;;;1.10;;
2658;SDS011;1339;53.304;10.406;2023-09-18T21:15:41;1.30;;;1.20;;
2658;SDS011;1339;53.304;10.406;2023-09-18T21:18:08;1.73;;;1.43;;
2658;SDS011;1339;53.304;10.406;2023-09-18T21:20:35;2.70;;;2.10;;
2658;SDS011;1339;53.304;10.406;2023-09-18T21:23:02;1.30;;;1.10;;
2658;SDS011;1339;53.304;10.406;2023-09-18T21:25:29;1.67;;;1.57;;
2658;SDS011;1339;53.304;10.406;2023-09-18T21:27:58;1.20;;;1.10;;
2658;SDS011;1339;53.304;10.406;2023-09-18T21:30:26;1.40;;;1.30;;
2658;SDS011;1339;53.304;10.406;2023-09-18T21:32:53;1.40;;;1.27;;
2658;SDS011;1339;53.304;10.406;2023-09-18T21:35:20;3.53;;;1.53;;
2658;SDS011;1339;53.304;10.406;2023-09-18T21:37:47;1.10;;;1.00;;
2658;SDS011;1339;53.304;10.406;2023-09-18T21:40:15;2.10;;;1.90;;
2658;SDS011;1339;53.304;10.406;2023-09-18T21:42:42;1.83;;;1.63;;
2658;SDS011;1339;53.304;10.406;2023-09-18T21:45:11;1.80;;;1.70;;
2658;SDS011;1339;53.304;10.406;2023-09-18T21:47:38;1.90;;;1.53;;
2658;SDS011;1339;53.304;10.406;2023-09-18T21:50:06;2.53;;;1.30;;
2658;SDS011;1339;53.304;10.406;2023-09-18T21:52:33;1.60;;;1.50;;
2658;SDS011;1339;53.304;10.406;2023-09-18T21:55:00;2.37;;;1.80;;
2658;SDS011;1339;53.304;10.406;2023-09-18T21:57:28;2.03;;;1.40;;
2658;SDS011;1339;53.304;10.406;2023-09-18T21:59:55;1.33;;;1.23;;
2658;SDS011;1339;53.304;10.406;2023-09-18T22:02:24;1.43;;;1.20;;
2658;SDS011;1339;53.304;10.406;2023-09-18T22:04:51;2.30;;;1.53;;
2658;SDS011;1339;53.304;10.406;2023-09-18T22:07:18;1.43;;;1.07;;
2658;SDS011;1339;53.304;10.406;2023-09-18T22:09:45;1.17;;;1.07;;
2658;SDS011;1339;53.304;10.406;2023-09-18T22:12:17;1.87;;;1.13;;
2658;SDS011;1339;53.304;10.406;2023-09-18T22:14:44;2.20;;;1.37;;
2658;SDS011;1339;53.304;10.406;2023-09-18T22:17:13;1.80;;;1.10;;
2658;SDS011;1339;53.304;10.406;2023-09-18T22:19:41;3.40;;;1.23;;
2658;SDS011;1339;53.304;10.406;2023-09-18T22:22:08;1.20;;;1.10;;
2658;SDS011;1339;53.304;10.406;2023-09-18T22:24:35;2.07;;;1.43;;
2658;SDS011;1339;53.304;10.406;2023-09-18T22:27:02;1.30;;;1.20;;
2658;SDS011;1339;53.304;10.406;2023-09-18T22:29:32;2.93;;;1.00;;
2658;SDS011;1339;53.304;10.406;2023-09-18T22:32:00;1.10;;;1.00;;
2658;SDS011;1339;53.304;10.406;2023-09-18T22:34:29;1.30;;;1.00;;
2658;SDS011;1339;53.304;10.406;2023-09-18T22:36:57;2.33;;;1.20;;
2658;SDS011;1339;53.304;10.406;2023-09-18T22:55:18;2.10;;;1.37;;
